Time;durP1;ratioP1;P1;durP2;ratioP2;P2;SDS_P1;SDS_P2;PMS_P1;PMS_P2;Temp;Humidity;BMP_temperature;BMP_pressure;BME280_temperature;BME280_humidity;BME280_pressure;Samples;Min_cycle;Max_cycle;Signal;HPM_P1;HPM_P2
2023/07/06 00:04:09;;;;;;;17.08;11.52;;;;;;;;;;10496172;28;20016;-73
2023/07/06 00:09:10;;;;;;;20.65;11.82;;;;;;;;;;10496855;28;20066;-73
2023/07/06 00:14:11;;;;;;;20.60;12.30;;;;;;;;;;10495466;28;20031;-73
2023/07/06 00:19:12;;;;;;;18.48;11.65;;;;;;;;;;10496445;28;20104;-74
2023/07/06 00:24:14;;;;;;;20.03;11.43;;;;;;;;;;10496453;28;20019;-74
2023/07/06 00:29:15;;;;;;;14.75;11.25;;;;;;;;;;10497028;28;20270;-72
2023/07/06 00:34:16;;;;;;;16.88;10.40;;;;;;;;;;10494950;28;20222;-74
2023/07/06 00:39:17;;;;;;;24.92;11.48;;;;;;;;;;10496335;28;20401;-74
2023/07/06 00:44:36;;;;;;;13.98;9.65;;;;;;;;;;10497180;28;20016;-74
2023/07/06 00:49:36;;;;;;;16.38;10.07;;;;;;;;;;10496617;28;20639;-74
2023/07/06 00:54:40;;;;;;;13.43;10.38;;;;;;;;;;10496318;28;20040;-73
2023/07/06 00:59:40;;;;;;;14.55;10.07;;;;;;;;;;10495777;28;20032;-74
2023/07/06 01:04:42;;;;;;;18.08;10.07;;;;;;;;;;10495315;28;20254;-74
2023/07/06 01:09:43;;;;;;;17.55;10.27;;;;;;;;;;10495503;28;20017;-73
2023/07/06 01:14:45;;;;;;;14.55;10.40;;;;;;;;;;10495515;28;20230;-74
2023/07/06 01:19:45;;;;;;;17.38;11.05;;;;;;;;;;10496674;28;20332;-73
2023/07/06 01:24:56;;;;;;;16.90;10.97;;;;;;;;;;10497871;28;20039;-73
2023/07/06 01:30:15;;;;;;;18.25;11.43;;;;;;;;;;10502320;28;20245;-72
2023/07/06 01:35:19;;;;;;;17.70;10.73;;;;;;;;;;10502534;28;20024;-73
2023/07/06 01:40:20;;;;;;;16.83;12.07;;;;;;;;;;10503064;28;20017;-73
2023/07/06 01:45:21;;;;;;;24.02;11.50;;;;;;;;;;10502765;28;20032;-74
2023/07/06 01:50:28;;;;;;;16.05;10.27;;;;;;;;;;10501909;28;20310;-73
2023/07/06 01:56:07;;;;;;;14.15;9.95;;;;;;;;;;10502149;28;20392;-72
2023/07/06 02:01:09;;;;;;;15.93;10.32;;;;;;;;;;10333405;28;20034;-74
2023/07/06 02:06:11;;;;;;;15.07;10.25;;;;;;;;;;10435145;28;20051;-74
2023/07/06 02:11:13;;;;;;;17.98;10.38;;;;;;;;;;10501891;28;20043;-74
2023/07/06 02:16:15;;;;;;;14.57;10.40;;;;;;;;;;10500232;28;20020;-74
2023/07/06 02:21:15;;;;;;;20.48;10.40;;;;;;;;;;10502097;28;20019;-74
2023/07/06 02:26:16;;;;;;;14.27;9.75;;;;;;;;;;10501280;28;20024;-74
2023/07/06 02:31:16;;;;;;;19.38;10.05;;;;;;;;;;10500861;28;20264;-74
2023/07/06 02:36:16;;;;;;;14.38;9.85;;;;;;;;;;10500504;28;20028;-73
2023/07/06 02:41:17;;;;;;;16.00;10.47;;;;;;;;;;10500919;28;20305;-73
2023/07/06 02:46:19;;;;;;;16.55;10.90;;;;;;;;;;10500425;28;20313;-73
2023/07/06 02:51:22;;;;;;;14.82;10.50;;;;;;;;;;10499810;28;20107;-73
2023/07/06 02:56:22;;;;;;;15.07;10.30;;;;;;;;;;10486385;28;20395;-73
2023/07/06 03:01:23;;;;;;;17.30;10.18;;;;;;;;;;10471988;28;20037;-74
2023/07/06 03:06:23;;;;;;;12.13;9.30;;;;;;;;;;10477723;28;20027;-74
2023/07/06 03:11:25;;;;;;;15.63;9.80;;;;;;;;;;10485214;28;20314;-74
2023/07/06 03:16:26;;;;;;;13.90;9.30;;;;;;;;;;10480394;28;20021;-73
2023/07/06 03:21:28;;;;;;;19.67;10.05;;;;;;;;;;10470793;28;20029;-73
2023/07/06 03:26:29;;;;;;;16.30;10.32;;;;;;;;;;10464472;28;20025;-73
2023/07/06 03:31:32;;;;;;;19.73;10.35;;;;;;;;;;10459165;28;20386;-73
2023/07/06 03:36:33;;;;;;;12.23;9.40;;;;;;;;;;10479813;28;20104;-73
2023/07/06 03:41:33;;;;;;;11.80;8.05;;;;;;;;;;10475844;28;20070;-74
2023/07/06 03:46:34;;;;;;;16.65;8.93;;;;;;;;;;10455510;28;20041;-74
2023/07/06 03:51:34;;;;;;;13.17;7.90;;;;;;;;;;10479348;28;20045;-74
2023/07/06 03:56:35;;;;;;;17.40;8.23;;;;;;;;;;10494637;28;20282;-73
2023/07/06 04:01:36;;;;;;;15.05;10.77;;;;;;;;;;10481908;28;20100;-73
2023/07/06 04:06:40;;;;;;;17.17;8.95;;;;;;;;;;10479486;28;20051;-73
2023/07/06 04:11:41;;;;;;;18.70;9.65;;;;;;;;;;10459746;28;20254;-71
2023/07/06 04:16:41;;;;;;;25.90;11.55;;;;;;;;;;10452829;28;20052;-72
2023/07/06 04:21:41;;;;;;;20.00;9.43;;;;;;;;;;10460990;28;20528;-72
2023/07/06 04:26:42;;;;;;;22.20;10.63;;;;;;;;;;10470279;28;20032;-72
2023/07/06 04:31:44;;;;;;;21.45;10.48;;;;;;;;;;10471842;28;20377;-73
2023/07/06 04:36:45;;;;;;;14.32;9.57;;;;;;;;;;10496167;28;20089;-73
2023/07/06 04:41:45;;;;;;;22.63;10.63;;;;;;;;;;10495249;28;20009;-73
2023/07/06 04:46:46;;;;;;;20.00;9.05;;;;;;;;;;10493596;28;20261;-73
2023/07/06 04:51:46;;;;;;;16.30;8.95;;;;;;;;;;10492086;28;20052;-73
2023/07/06 04:56:46;;;;;;;32.93;10.43;;;;;;;;;;10493914;28;20273;-73
2023/07/06 05:01:47;;;;;;;17.45;9.90;;;;;;;;;;10500443;28;20077;-74
2023/07/06 05:06:47;;;;;;;17.70;9.53;;;;;;;;;;10503597;28;20389;-73
2023/07/06 05:11:47;;;;;;;12.10;9.02;;;;;;;;;;10504290;28;20267;-73
2023/07/06 05:16:47;;;;;;;12.27;9.20;;;;;;;;;;10503005;28;20106;-73
2023/07/06 05:21:48;;;;;;;12.90;7.95;;;;;;;;;;10503183;28;20373;-73
2023/07/06 05:26:48;;;;;;;12.57;7.70;;;;;;;;;;10502715;28;20047;-73
2023/07/06 05:31:48;;;;;;;20.67;7.60;;;;;;;;;;10502367;28;20071;-73
2023/07/06 05:36:49;;;;;;;12.80;7.28;;;;;;;;;;10499405;28;20056;-72
2023/07/06 05:41:49;;;;;;;15.55;7.68;;;;;;;;;;10490957;28;20078;-73
2023/07/06 05:46:49;;;;;;;10.13;6.07;;;;;;;;;;10502308;28;20020;-73
2023/07/06 05:51:50;;;;;;;11.40;7.10;;;;;;;;;;10501728;28;20056;-72
2023/07/06 05:56:50;;;;;;;12.23;5.97;;;;;;;;;;10500575;28;20231;-73
2023/07/06 06:01:51;;;;;;;15.05;7.45;;;;;;;;;;10501083;28;20020;-74
2023/07/06 06:06:54;;;;;;;9.85;5.90;;;;;;;;;;10501294;28;20024;-74
2023/07/06 06:11:54;;;;;;;12.18;6.95;;;;;;;;;;10499469;28;20048;-72
2023/07/06 06:16:56;;;;;;;13.43;6.47;;;;;;;;;;10500988;28;20218;-72
2023/07/06 06:21:57;;;;;;;17.70;6.97;;;;;;;;;;10500378;28;20443;-72
2023/07/06 06:27:00;;;;;;;10.93;6.18;;;;;;;;;;10500874;28;20236;-72
2023/07/06 06:32:02;;;;;;;14.57;6.13;;;;;;;;;;10500755;28;20032;-73
2023/07/06 06:37:04;;;;;;;13.05;7.15;;;;;;;;;;10499849;28;20016;-73
2023/07/06 06:42:04;;;;;;;8.77;5.53;;;;;;;;;;10499956;28;20021;-73
2023/07/06 06:47:05;;;;;;;11.60;4.85;;;;;;;;;;10500163;28;20044;-73
2023/07/06 06:52:05;;;;;;;10.80;5.10;;;;;;;;;;10499403;28;20040;-73
2023/07/06 06:57:06;;;;;;;12.70;4.87;;;;;;;;;;10499772;28;20316;-74
2023/07/06 07:02:07;;;;;;;6.53;4.20;;;;;;;;;;10498820;28;20310;-73
2023/07/06 07:07:08;;;;;;;6.57;4.47;;;;;;;;;;10498660;28;20362;-73
2023/07/06 07:12:08;;;;;;;7.93;3.53;;;;;;;;;;10498550;28;20020;-73
2023/07/06 07:17:10;;;;;;;5.93;3.63;;;;;;;;;;10498389;28;20090;-73
2023/07/06 07:22:10;;;;;;;5.57;4.68;;;;;;;;;;10495399;28;20013;-74
2023/07/06 07:27:11;;;;;;;4.95;3.95;;;;;;;;;;10498663;28;20020;-73
2023/07/06 07:32:11;;;;;;;7.88;3.65;;;;;;;;;;10497454;28;20309;-73
2023/07/06 07:37:14;;;;;;;14.38;4.50;;;;;;;;;;10498040;28;20032;-72
2023/07/06 07:42:14;;;;;;;6.03;3.75;;;;;;;;;;10498548;28;20106;-72
2023/07/06 07:47:18;;;;;;;8.55;4.25;;;;;;;;;;10496241;28;20105;-72
2023/07/06 07:52:19;;;;;;;8.68;4.03;;;;;;;;;;10496820;28;20057;-73
2023/07/06 07:57:19;;;;;;;5.18;3.63;;;;;;;;;;10497353;28;20032;-73
2023/07/06 08:02:20;;;;;;;5.22;4.10;;;;;;;;;;10496915;28;20016;-73
2023/07/06 08:07:21;;;;;;;6.28;4.03;;;;;;;;;;10496923;28;20008;-73
2023/07/06 08:12:21;;;;;;;7.53;3.03;;;;;;;;;;10496819;28;20553;-73
2023/07/06 08:17:22;;;;;;;6.07;2.92;;;;;;;;;;10497014;28;20028;-72
2023/07/06 08:22:23;;;;;;;7.82;3.30;;;;;;;;;;10497686;28;20017;-72
2023/07/06 08:27:23;;;;;;;5.07;3.42;;;;;;;;;;10496131;28;20191;-72
2023/07/06 08:32:24;;;;;;;5.70;3.07;;;;;;;;;;10496077;28;20039;-72
2023/07/06 08:37:25;;;;;;;4.68;3.22;;;;;;;;;;10503411;28;20225;-73
2023/07/06 08:42:26;;;;;;;7.20;3.30;;;;;;;;;;10505170;28;20020;-74
2023/07/06 08:47:26;;;;;;;7.47;3.03;;;;;;;;;;10504316;28;20113;-73
2023/07/06 08:52:27;;;;;;;6.57;3.20;;;;;;;;;;10504203;28;20051;-73
2023/07/06 08:57:30;;;;;;;6.93;3.22;;;;;;;;;;10504275;28;20020;-73
2023/07/06 09:02:31;;;;;;;4.80;3.03;;;;;;;;;;10509853;28;20032;-72
2023/07/06 09:07:35;;;;;;;4.20;2.80;;;;;;;;;;10504116;28;20310;-71
2023/07/06 09:12:36;;;;;;;;;;;;;;;;;;10503417;28;20195;-72
2023/07/06 09:17:45;;;;;;;7.18;3.40;;;;;;;;;;10503305;28;19904;-73
2023/07/06 09:22:46;;;;;;;4.20;3.22;;;;;;;;;;10502831;28;20092;-72
2023/07/06 09:27:47;;;;;;;4.50;3.30;;;;;;;;;;10503480;28;20021;-71
2023/07/06 09:32:51;;;;;;;6.75;3.63;;;;;;;;;;10502070;28;20348;-72
2023/07/06 09:37:52;;;;;;;8.25;3.75;;;;;;;;;;10502959;28;20028;-72
2023/07/06 09:42:52;;;;;;;5.72;3.55;;;;;;;;;;10502449;28;20330;-72
2023/07/06 09:47:56;;;;;;;7.22;3.35;;;;;;;;;;10500603;28;20021;-72
2023/07/06 09:52:58;;;;;;;7.85;3.80;;;;;;;;;;10501737;28;20367;-72
2023/07/06 09:57:59;;;;;;;5.57;3.42;;;;;;;;;;10500442;28;20338;-73
2023/07/06 10:03:08;;;;;;;5.40;3.47;;;;;;;;;;10501799;28;20214;-72
2023/07/06 10:08:14;;;;;;;7.53;3.83;;;;;;;;;;10501289;28;20025;-72
2023/07/06 10:13:23;;;;;;;6.10;4.20;;;;;;;;;;10500390;28;20066;-73
2023/07/06 10:18:27;;;;;;;7.68;4.18;;;;;;;;;;10500985;28;20097;-71
2023/07/06 10:23:32;;;;;;;5.53;4.57;;;;;;;;;;10498769;28;21058;-72
2023/07/06 10:28:38;;;;;;;7.70;5.80;;;;;;;;;;10487084;28;20024;-72
2023/07/06 10:33:53;;;;;;;13.23;6.50;;;;;;;;;;10500756;28;20043;-73
2023/07/06 10:38:54;;;;;;;10.45;6.22;;;;;;;;;;10487478;28;20052;-73
2023/07/06 10:43:55;;;;;;;15.65;7.10;;;;;;;;;;10500196;28;20294;-72
2023/07/06 10:48:59;;;;;;;14.52;7.10;;;;;;;;;;10499924;28;20025;-72
2023/07/06 10:54:16;;;;;;;15.40;6.78;;;;;;;;;;10498240;28;20040;-72
2023/07/06 10:59:18;;;;;;;9.40;6.50;;;;;;;;;;10504014;28;20313;-72
2023/07/06 11:04:37;;;;;;;16.05;7.43;;;;;;;;;;10501866;28;20039;-72
2023/07/06 11:10:07;;;;;;;12.95;6.65;;;;;;;;;;10499031;28;20091;-72
2023/07/06 11:15:16;;;;;;;9.75;6.57;;;;;;;;;;10498626;28;20043;-72
2023/07/06 11:20:23;;;;;;;8.57;6.00;;;;;;;;;;10497441;28;20210;-72
2023/07/06 11:25:28;;;;;;;9.55;6.10;;;;;;;;;;10498579;28;20020;-72
2023/07/06 11:30:49;;;;;;;9.07;6.03;;;;;;;;;;10498122;28;20020;-73
2023/07/06 11:35:59;;;;;;;11.98;6.43;;;;;;;;;;10496372;28;20237;-73
2023/07/06 11:41:05;;;;;;;21.33;8.30;;;;;;;;;;10498087;28;20333;-73
2023/07/06 11:46:18;;;;;;;12.73;5.53;;;;;;;;;;10497665;28;20017;-73
2023/07/06 11:51:22;;;;;;;8.05;5.40;;;;;;;;;;10498104;28;20047;-73
2023/07/06 11:56:35;;;;;;;10.10;6.28;;;;;;;;;;10497494;28;20036;-73
2023/07/06 12:01:42;;;;;;;12.98;7.07;;;;;;;;;;10497300;28;20021;-72
2023/07/06 12:06:43;;;;;;;;;;;;;;;;;;10497618;28;20035;-72
2023/07/06 12:11:44;;;;;;;11.57;6.78;;;;;;;;;;10497453;28;19908;-73
2023/07/06 12:16:44;;;;;;;8.77;4.13;;;;;;;;;;10496522;28;20526;-72
2023/07/06 12:21:45;;;;;;;8.18;3.53;;;;;;;;;;10496944;28;20059;-73
2023/07/06 12:26:47;;;;;;;7.95;4.00;;;;;;;;;;10496501;28;20019;-73
2023/07/06 12:31:49;;;;;;;5.25;3.08;;;;;;;;;;10496022;28;20385;-72
2023/07/06 12:36:52;;;;;;;7.65;3.30;;;;;;;;;;10478836;28;20017;-72
2023/07/06 12:41:53;;;;;;;6.40;2.70;;;;;;;;;;10494974;28;20024;-72
2023/07/06 12:47:01;;;;;;;5.10;2.85;;;;;;;;;;10495884;28;20051;-72
2023/07/06 12:52:02;;;;;;;7.15;4.15;;;;;;;;;;10500644;28;20238;-72
2023/07/06 12:57:05;;;;;;;7.65;3.92;;;;;;;;;;10495887;28;20036;-73
2023/07/06 13:02:22;;;;;;;8.88;4.28;;;;;;;;;;10495715;28;20088;-73
2023/07/06 13:07:26;;;;;;;10.00;4.40;;;;;;;;;;10496121;28;20316;-72
2023/07/06 13:12:31;;;;;;;7.82;3.83;;;;;;;;;;10495546;28;20052;-72
2023/07/06 13:17:31;;;;;;;8.48;4.07;;;;;;;;;;10495650;28;20187;-73
2023/07/06 13:22:32;;;;;;;6.97;4.70;;;;;;;;;;10501743;28;20032;-72
2023/07/06 13:27:32;;;;;;;8.43;5.20;;;;;;;;;;10501328;28;20029;-73
2023/07/06 13:32:33;;;;;;;14.00;5.07;;;;;;;;;;10502761;28;20207;-72
2023/07/06 13:37:34;;;;;;;10.35;4.72;;;;;;;;;;10502121;28;20270;-72
2023/07/06 13:42:35;;;;;;;14.48;5.85;;;;;;;;;;10502252;28;20234;-72
2023/07/06 13:47:35;;;;;;;10.20;5.90;;;;;;;;;;10501762;28;20043;-72
2023/07/06 13:52:35;;;;;;;10.93;5.97;;;;;;;;;;10500379;28;20059;-73
2023/07/06 13:57:36;;;;;;;8.52;5.47;;;;;;;;;;10501371;28;20031;-72
2023/07/06 14:02:37;;;;;;;10.20;5.03;;;;;;;;;;10501459;28;20025;-73
2023/07/06 14:07:39;;;;;;;10.75;5.38;;;;;;;;;;10500975;28;20286;-72
2023/07/06 14:12:39;;;;;;;10.30;4.78;;;;;;;;;;10501363;28;20024;-73
2023/07/06 14:17:40;;;;;;;10.48;4.57;;;;;;;;;;10500223;28;20234;-73
2023/07/06 14:22:40;;;;;;;12.25;5.03;;;;;;;;;;10500958;28;20024;-73
2023/07/06 14:27:40;;;;;;;8.95;4.50;;;;;;;;;;10500073;28;20028;-72
2023/07/06 14:32:41;;;;;;;9.18;4.68;;;;;;;;;;10499263;28;20188;-73
2023/07/06 14:37:42;;;;;;;7.80;5.03;;;;;;;;;;10500875;28;20290;-73
2023/07/06 14:42:44;;;;;;;11.48;4.60;;;;;;;;;;10503689;28;20270;-73
2023/07/06 14:47:44;;;;;;;10.10;5.18;;;;;;;;;;10499475;28;20032;-73
2023/07/06 14:52:45;;;;;;;11.30;6.40;;;;;;;;;;10498558;28;20338;-73
2023/07/06 14:57:46;;;;;;;14.57;6.45;;;;;;;;;;10499478;28;20036;-72
2023/07/06 15:02:48;;;;;;;15.70;6.78;;;;;;;;;;10498125;28;20028;-73
2023/07/06 15:07:48;;;;;;;12.57;6.13;;;;;;;;;;10499033;28;20119;-73
2023/07/06 15:12:49;;;;;;;8.93;4.87;;;;;;;;;;10498449;28;20028;-73
2023/07/06 15:17:49;;;;;;;8.20;5.15;;;;;;;;;;10497001;28;20041;-72
2023/07/06 15:22:50;;;;;;;9.85;5.05;;;;;;;;;;10499734;28;20025;-73
2023/07/06 15:27:50;;;;;;;8.13;4.70;;;;;;;;;;10497656;28;20536;-72
2023/07/06 15:32:51;;;;;;;9.00;5.30;;;;;;;;;;10498518;28;20123;-73
2023/07/06 15:37:51;;;;;;;7.45;4.60;;;;;;;;;;10497435;28;20024;-73
2023/07/06 15:42:53;;;;;;;13.13;4.53;;;;;;;;;;10489755;28;20051;-69
2023/07/06 15:47:53;;;;;;;15.02;5.65;;;;;;;;;;10481876;28;20283;-69
2023/07/06 15:52:54;;;;;;;9.60;5.20;;;;;;;;;;10487868;28;20039;-70
2023/07/06 15:57:54;;;;;;;7.88;4.43;;;;;;;;;;10490266;28;20024;-69
2023/07/06 16:02:58;;;;;;;7.55;5.00;;;;;;;;;;10488117;28;20325;-70
2023/07/06 16:07:58;;;;;;;6.47;4.50;;;;;;;;;;10486737;28;20095;-69
2023/07/06 16:12:58;;;;;;;7.13;4.82;;;;;;;;;;10486404;28;20085;-69
2023/07/06 16:17:59;;;;;;;6.18;3.90;;;;;;;;;;10487002;28;20009;-71
2023/07/06 16:22:59;;;;;;;6.90;4.13;;;;;;;;;;10488547;28;20039;-70
2023/07/06 16:28:00;;;;;;;9.82;4.10;;;;;;;;;;10488876;28;20218;-71
2023/07/06 16:33:00;;;;;;;6.35;4.47;;;;;;;;;;10484835;28;20334;-71
2023/07/06 16:38:00;;;;;;;7.30;4.93;;;;;;;;;;10485986;28;20013;-72
2023/07/06 16:43:00;;;;;;;16.50;6.25;;;;;;;;;;10484174;28;20029;-71
2023/07/06 16:48:01;;;;;;;9.85;5.50;;;;;;;;;;10483107;28;20329;-73
2023/07/06 16:53:01;;;;;;;11.50;6.05;;;;;;;;;;10488325;28;20049;-72
2023/07/06 16:58:01;;;;;;;11.90;5.68;;;;;;;;;;10496185;28;20066;-73
2023/07/06 17:03:01;;;;;;;12.05;6.68;;;;;;;;;;10496907;28;20023;-74
2023/07/06 17:08:02;;;;;;;11.90;7.22;;;;;;;;;;10493767;28;20028;-72
2023/07/06 17:13:02;;;;;;;13.17;5.90;;;;;;;;;;10494986;28;20047;-74
2023/07/06 17:18:02;;;;;;;12.03;6.70;;;;;;;;;;10496418;28;20021;-77
2023/07/06 17:23:03;;;;;;;14.10;6.57;;;;;;;;;;10495755;28;20012;-73
2023/07/06 17:28:03;;;;;;;13.30;6.67;;;;;;;;;;10496048;28;20012;-74
2023/07/06 17:33:03;;;;;;;15.00;7.77;;;;;;;;;;10495915;28;20063;-73
2023/07/06 17:38:04;;;;;;;11.32;6.75;;;;;;;;;;10491778;28;20274;-75
2023/07/06 17:43:04;;;;;;;15.70;7.78;;;;;;;;;;10494131;28;20059;-72
2023/07/06 17:48:04;;;;;;;14.83;7.53;;;;;;;;;;10495271;28;20058;-71
2023/07/06 17:53:05;;;;;;;14.47;7.77;;;;;;;;;;10493870;28;20044;-75
2023/07/06 17:58:05;;;;;;;20.75;7.95;;;;;;;;;;10493872;28;20025;-72
2023/07/06 18:03:05;;;;;;;17.95;8.60;;;;;;;;;;10494569;28;20032;-73
2023/07/06 18:08:06;;;;;;;21.83;8.82;;;;;;;;;;10493115;28;20123;-74
2023/07/06 18:13:07;;;;;;;17.15;8.43;;;;;;;;;;10494059;28;20309;-75
2023/07/06 18:18:07;;;;;;;14.68;8.10;;;;;;;;;;10493877;28;20047;-74
2023/07/06 18:23:07;;;;;;;21.80;10.73;;;;;;;;;;10493104;28;20344;-73
2023/07/06 18:28:08;;;;;;;20.95;10.10;;;;;;;;;;10491886;28;20031;-73
2023/07/06 18:33:09;;;;;;;18.15;9.27;;;;;;;;;;10492434;28;20016;-74
2023/07/06 18:38:09;;;;;;;15.52;9.60;;;;;;;;;;10493671;28;20435;-73
2023/07/06 18:43:09;;;;;;;20.65;10.00;;;;;;;;;;10492555;28;20020;-75
2023/07/06 18:48:10;;;;;;;14.95;9.85;;;;;;;;;;10490061;28;20234;-75
2023/07/06 18:53:10;;;;;;;23.00;10.20;;;;;;;;;;10495697;28;20248;-75
2023/07/06 18:58:11;;;;;;;21.77;9.40;;;;;;;;;;10497523;28;20024;-76
2023/07/06 19:03:11;;;;;;;31.80;11.85;;;;;;;;;;10493658;28;20528;-75
2023/07/06 19:08:11;;;;;;;22.98;11.43;;;;;;;;;;10505715;28;20036;-74
2023/07/06 19:13:12;;;;;;;20.98;11.68;;;;;;;;;;10490646;28;20318;-74
2023/07/06 19:18:12;;;;;;;23.00;10.17;;;;;;;;;;10494638;28;20016;-77
2023/07/06 19:23:12;;;;;;;19.63;10.77;;;;;;;;;;10498072;28;20055;-79
2023/07/06 19:28:13;;;;;;;17.50;9.35;;;;;;;;;;10487330;28;20397;-75
2023/07/06 19:33:13;;;;;;;15.03;8.37;;;;;;;;;;10494391;28;20330;-77
2023/07/06 19:38:14;;;;;;;13.25;8.00;;;;;;;;;;10506479;28;20039;-76
2023/07/06 19:43:14;;;;;;;11.48;8.27;;;;;;;;;;10498878;28;20078;-75
2023/07/06 19:48:16;;;;;;;13.73;8.45;;;;;;;;;;10499571;28;20276;-75
2023/07/06 19:53:16;;;;;;;15.00;8.73;;;;;;;;;;10485399;28;20330;-74
2023/07/06 19:58:16;;;;;;;16.23;7.85;;;;;;;;;;10503696;28;20028;-75
2023/07/06 20:03:17;;;;;;;11.38;7.55;;;;;;;;;;10502400;28;20110;-73
2023/07/06 20:08:19;;;;;;;14.75;8.77;;;;;;;;;;10494358;28;20051;-73
2023/07/06 20:13:19;;;;;;;12.90;8.23;;;;;;;;;;10493742;28;20123;-78
2023/07/06 20:18:20;;;;;;;12.27;8.05;;;;;;;;;;10507362;28;20318;-78
2023/07/06 20:23:20;;;;;;;14.30;10.13;;;;;;;;;;10499523;28;20032;-73
2023/07/06 20:28:21;;;;;;;16.42;9.60;;;;;;;;;;10497981;28;20292;-76
2023/07/06 20:33:21;;;;;;;17.85;10.20;;;;;;;;;;10500471;28;20025;-76
2023/07/06 20:38:21;;;;;;;16.85;8.32;;;;;;;;;;10486840;28;20088;-74
2023/07/06 20:43:23;;;;;;;12.75;8.68;;;;;;;;;;10469069;28;20345;-74
2023/07/06 20:48:24;;;;;;;17.10;8.38;;;;;;;;;;10482303;28;20369;-74
2023/07/06 20:53:24;;;;;;;17.35;8.55;;;;;;;;;;10473339;28;20244;-74
2023/07/06 20:58:25;;;;;;;14.47;8.90;;;;;;;;;;10472446;28;20028;-73
2023/07/06 21:03:27;;;;;;;15.90;9.23;;;;;;;;;;10481924;28;20020;-76
2023/07/06 21:08:28;;;;;;;18.58;9.13;;;;;;;;;;10473704;28;20035;-76
2023/07/06 21:13:29;;;;;;;14.50;8.02;;;;;;;;;;10462155;28;20103;-73
2023/07/06 21:18:30;;;;;;;16.42;9.65;;;;;;;;;;10472126;28;20024;-74
2023/07/06 21:23:30;;;;;;;10.52;8.10;;;;;;;;;;10495270;28;20029;-73
2023/07/06 21:28:30;;;;;;;14.90;8.87;;;;;;;;;;10492344;28;20287;-73
2023/07/06 21:33:32;;;;;;;14.05;8.07;;;;;;;;;;10492476;28;20341;-73
2023/07/06 21:38:33;;;;;;;13.13;8.88;;;;;;;;;;10492792;28;20047;-73
2023/07/06 21:43:33;;;;;;;13.63;9.40;;;;;;;;;;10501676;28;20032;-73
2023/07/06 21:48:33;;;;;;;14.88;8.13;;;;;;;;;;10502163;28;20032;-73
2023/07/06 21:53:34;;;;;;;19.02;9.43;;;;;;;;;;10501545;28;20052;-74
2023/07/06 21:58:35;;;;;;;17.35;9.90;;;;;;;;;;10502892;28;20298;-74
2023/07/06 22:03:36;;;;;;;13.93;8.43;;;;;;;;;;10502496;28;20530;-74
2023/07/06 22:08:36;;;;;;;12.20;7.72;;;;;;;;;;10502814;28;20389;-74
2023/07/06 22:13:38;;;;;;;19.87;10.07;;;;;;;;;;10501908;28;20279;-74
2023/07/06 22:18:38;;;;;;;16.60;9.02;;;;;;;;;;10502296;28;20232;-74
2023/07/06 22:23:38;;;;;;;14.77;9.40;;;;;;;;;;10501565;28;20028;-73
2023/07/06 22:28:39;;;;;;;18.53;9.27;;;;;;;;;;10501693;28;20306;-73
2023/07/06 22:33:39;;;;;;;13.10;8.50;;;;;;;;;;10500986;28;20031;-73
2023/07/06 22:38:41;;;;;;;11.60;8.73;;;;;;;;;;10501786;28;20012;-72
2023/07/06 22:43:41;;;;;;;18.58;8.98;;;;;;;;;;10499884;28;20240;-73
2023/07/06 22:48:41;;;;;;;23.75;10.85;;;;;;;;;;10500656;28;20294;-73
2023/07/06 22:53:44;;;;;;;16.70;8.20;;;;;;;;;;10500043;28;20346;-73
2023/07/06 22:58:44;;;;;;;12.13;9.27;;;;;;;;;;10500417;28;20032;-74
2023/07/06 23:03:45;;;;;;;19.55;9.32;;;;;;;;;;10500484;28;20024;-73
2023/07/06 23:08:45;;;;;;;16.48;8.98;;;;;;;;;;10499771;28;20047;-74
2023/07/06 23:13:45;;;;;;;15.10;10.18;;;;;;;;;;10499483;28;20025;-73
2023/07/06 23:18:46;;;;;;;20.95;10.93;;;;;;;;;;10499823;28;20016;-72
2023/07/06 23:23:46;;;;;;;16.17;9.60;;;;;;;;;;10499250;28;20036;-74
2023/07/06 23:28:47;;;;;;;18.38;9.40;;;;;;;;;;10499575;28;20334;-73
2023/07/06 23:33:48;;;;;;;13.05;8.80;;;;;;;;;;10498580;28;20032;-73
2023/07/06 23:38:50;;;;;;;15.65;9.23;;;;;;;;;;10498493;28;20035;-73
2023/07/06 23:43:50;;;;;;;16.75;9.20;;;;;;;;;;10498356;28;20021;-72
2023/07/06 23:48:51;;;;;;;15.93;9.52;;;;;;;;;;10498007;28;20034;-73
2023/07/06 23:53:51;;;;;;;21.92;9.23;;;;;;;;;;10497902;28;20243;-74
2023/07/06 23:58:52;;;;;;;15.55;9.20;;;;;;;;;;10498359;28;20036;-73
